Time;durP1;ratioP1;P1;durP2;ratioP2;P2;SDS_P1;SDS_P2;PMS_P1;PMS_P2;Temp;Humidity;BMP_temperature;BMP_pressure;BME280_temperature;BME280_humidity;BME280_pressure;Samples;Min_cycle;Max_cycle;Signal;HPM_P1;HPM_P2
2022/04/04 00:00:44;;;;;;;;;17.67;15.67;;;;;8.14;48.06;101847.44;5017234;28;46492;-67
2022/04/04 00:03:10;;;;;;;;;17.67;15.33;;;;;8.00;48.09;101839.53;5017494;28;45313;-66
2022/04/04 00:05:36;;;;;;;;;17.00;14.67;;;;;8.07;48.29;101854.09;5016275;28;45529;-66
2022/04/04 00:08:02;;;;;;;;;15.67;15.67;;;;;8.04;48.36;101841.06;5004869;28;45222;-68
2022/04/04 00:10:28;;;;;;;;;14.33;13.67;;;;;8.11;48.27;101847.63;5015845;28;49423;-65
2022/04/04 00:12:54;;;;;;;;;17.33;16.67;;;;;8.13;48.42;101856.31;5015895;28;45304;-66
2022/04/04 00:15:19;;;;;;;;;20.67;18.00;;;;;8.04;48.21;101841.91;5016018;28;45365;-67
2022/04/04 00:17:47;;;;;;;;;16.00;16.00;;;;;7.81;48.32;101808.13;5017424;28;45400;-67
2022/04/04 00:20:13;;;;;;;;;18.00;18.00;;;;;7.92;48.82;101826.81;5016947;28;46385;-68
2022/04/04 00:22:40;;;;;;;;;16.00;16.00;;;;;8.03;48.97;101856.09;5017651;28;45412;-66
2022/04/04 00:25:06;;;;;;;;;13.00;12.00;;;;;7.99;48.79;101859.88;5015642;28;45553;-67
2022/04/04 00:27:32;;;;;;;;;16.00;15.33;;;;;7.98;49.29;101859.97;5016073;28;45491;-66
2022/04/04 00:29:57;;;;;;;;;19.33;18.00;;;;;7.96;48.88;101849.47;5016900;28;46282;-66
2022/04/04 00:32:22;;;;;;;;;17.00;14.67;;;;;7.90;49.16;101844.59;5017145;28;45269;-65
2022/04/04 00:34:48;;;;;;;;;17.67;16.00;;;;;7.91;48.64;101827.75;5017305;28;45389;-66
2022/04/04 00:37:14;;;;;;;;;14.33;14.33;;;;;8.01;48.56;101851.81;5016317;28;45476;-67
2022/04/04 00:39:39;;;;;;;;;12.33;12.33;;;;;8.02;48.66;101843.81;5017057;28;46275;-66
2022/04/04 00:42:06;;;;;;;;;12.67;11.33;;;;;8.01;48.79;101842.13;5016193;28;45379;-67
2022/04/04 00:44:32;;;;;;;;;14.33;14.33;;;;;7.98;48.78;101837.00;5015923;28;45327;-67
2022/04/04 00:46:58;;;;;;;;;15.00;12.67;;;;;8.00;48.48;101835.09;5016663;28;45373;-65
2022/04/04 00:49:24;;;;;;;;;13.67;13.67;;;;;8.00;48.27;101832.44;5016959;28;46145;-66
2022/04/04 00:51:49;;;;;;;;;14.67;14.33;;;;;8.00;49.12;101840.38;4982549;28;45359;-66
2022/04/04 00:54:15;;;;;;;;;17.67;15.33;;;;;7.96;48.40;101833.59;5017313;28;45507;-65
2022/04/04 00:56:40;;;;;;;;;14.33;13.33;;;;;7.91;49.03;101825.09;5015541;28;45389;-66
2022/04/04 00:59:07;;;;;;;;;15.67;13.00;;;;;7.91;48.89;101828.59;5016680;28;46259;-66
2022/04/04 01:01:33;;;;;;;;;17.00;15.67;;;;;7.89;49.03;101837.59;5016581;28;45181;-69
2022/04/04 01:03:59;;;;;;;;;17.33;15.33;;;;;7.58;48.67;101797.22;5016716;28;45289;-66
2022/04/04 01:06:24;;;;;;;;;17.33;14.67;;;;;7.75;49.25;101837.63;5016978;28;45321;-66
2022/04/04 01:08:50;;;;;;;;;14.33;14.33;;;;;7.72;49.25;101836.03;5016209;28;46682;-67
2022/04/04 01:11:16;;;;;;;;;13.00;13.00;;;;;7.66;49.53;101836.44;5016587;28;45478;-65
2022/04/04 01:13:49;;;;;;;;;12.00;12.00;;;;;7.65;49.02;101829.47;5015598;28;45394;-64
2022/04/04 01:16:16;;;;;;;;;14.00;12.33;;;;;7.68;48.60;101828.41;5017154;28;45488;-67
2022/04/04 01:18:42;;;;;;;;;11.67;11.67;;;;;7.62;48.74;101816.44;5019528;28;45236;-65
2022/04/04 01:21:08;;;;;;;;;13.67;12.00;;;;;7.71;48.97;101830.84;5018698;28;45403;-66
2022/04/04 01:23:40;;;;;;;;;13.67;12.00;;;;;7.68;48.21;101815.16;5018938;28;45383;-66
2022/04/04 01:26:07;;;;;;;;;14.33;14.33;;;;;7.61;47.60;101797.06;5019000;28;45339;-66
2022/04/04 01:28:32;;;;;;;;;11.33;9.67;;;;;7.73;47.80;101821.84;5018415;28;46266;-64
2022/04/04 01:30:58;;;;;;;;;10.33;9.00;;;;;7.28;47.49;101747.13;5015433;28;46048;-66
2022/04/04 01:33:26;;;;;;;;;8.67;8.33;;;;;7.74;47.61;101822.72;5000387;28;45472;-66
2022/04/04 01:35:52;;;;;;;;;5.67;5.67;;;;;7.62;47.16;101814.63;5019225;28;45609;-67
2022/04/04 01:38:21;;;;;;;;;10.67;9.00;;;;;7.61;47.27;101812.09;5018578;28;48068;-66
2022/04/04 01:40:56;;;;;;;;;7.00;5.33;;;;;7.60;46.44;101811.19;5018495;28;45325;-66
2022/04/04 01:43:21;;;;;;;;;8.00;8.00;;;;;7.58;47.28;101805.16;5019971;28;45366;-65
2022/04/04 01:48:37;;;;;;;;;13.33;8.00;;;;;7.63;46.92;101803.09;5019963;28;45606;-66
2022/04/04 01:51:04;;;;;;;;;9.67;9.67;;;;;7.61;47.63;101804.16;5019726;28;45430;-66
2022/04/04 01:53:31;;;;;;;;;10.67;10.00;;;;;7.41;47.12;101778.97;5019482;28;45660;-66
2022/04/04 01:56:07;;;;;;;;;11.33;11.33;;;;;7.55;46.90;101800.06;5020531;28;45458;-65
2022/04/04 01:58:33;;;;;;;;;13.67;12.33;;;;;7.48;47.47;101785.53;5017934;28;46448;-66
2022/04/04 02:01:01;;;;;;;;;11.00;10.00;;;;;7.61;47.93;101807.63;5018434;28;45483;-65
2022/04/04 02:03:28;;;;;;;;;11.33;11.33;;;;;7.09;47.48;101720.16;5018324;28;45370;-67
2022/04/04 02:05:58;;;;;;;;;11.00;9.33;;;;;7.44;47.70;101783.19;5018685;28;45313;-66
2022/04/04 02:08:24;;;;;;;;;8.00;8.00;;;;;7.43;47.21;101787.66;5019016;28;46908;-65
2022/04/04 02:10:50;;;;;;;;;8.67;7.00;;;;;7.52;47.48;101792.34;5019351;28;45543;-66
2022/04/04 02:13:15;;;;;;;;;10.00;9.33;;;;;7.54;47.31;101789.59;5019781;28;45451;-66
2022/04/04 02:15:41;;;;;;;;;10.33;8.00;;;;;7.26;47.54;101743.75;5019707;28;45474;-66
2022/04/04 02:18:07;;;;;;;;;10.00;10.00;;;;;7.48;47.15;101780.25;5018682;28;46201;-65
2022/04/04 02:20:32;;;;;;;;;13.00;9.33;;;;;7.44;47.15;101786.69;5017878;28;45409;-66
2022/04/04 02:22:58;;;;;;;;;7.00;6.67;;;;;7.33;47.32;101770.66;5017699;28;45579;-65
2022/04/04 02:25:24;;;;;;;;;8.33;8.33;;;;;7.34;47.35;101772.34;5018996;28;45613;-66
2022/04/04 02:27:49;;;;;;;;;7.00;7.00;;;;;7.36;47.33;101765.16;5019394;28;45308;-66
2022/04/04 02:30:15;;;;;;;;;11.33;8.33;;;;;7.47;46.82;101777.72;5000543;28;45330;-68
2022/04/04 02:32:40;;;;;;;;;8.67;8.67;;;;;7.36;46.92;101754.56;5018559;28;45768;-65
2022/04/04 02:35:06;;;;;;;;;6.67;6.00;;;;;7.41;47.13;101768.38;5019064;28;45490;-65
2022/04/04 02:37:32;;;;;;;;;14.67;11.33;;;;;7.39;47.17;101758.81;5018337;28;46577;-65
2022/04/04 02:39:57;;;;;;;;;8.33;7.00;;;;;7.50;47.37;101773.06;5018667;28;45337;-66
2022/04/04 02:42:23;;;;;;;;;7.00;7.00;;;;;7.28;47.42;101747.13;5018773;28;45262;-66
2022/04/04 02:44:48;;;;;;;;;9.00;6.33;;;;;7.40;47.51;101765.81;5018679;28;45363;-67
2022/04/04 02:47:14;;;;;;;;;9.00;7.67;;;;;7.28;47.20;101743.66;5017119;28;47925;-67
2022/04/04 02:49:39;;;;;;;;;5.67;5.67;;;;;7.40;46.88;101764.00;5018490;28;45484;-66
2022/04/04 02:52:05;;;;;;;;;8.33;7.00;;;;;7.36;47.11;101759.88;5018836;28;45554;-67
2022/04/04 02:54:31;;;;;;;;;10.33;6.00;;;;;7.43;46.65;101761.19;5018995;28;45265;-67
2022/04/04 02:56:56;;;;;;;;;8.33;7.67;;;;;7.44;46.84;101768.19;5018685;28;45626;-66
2022/04/04 02:59:25;;;;;;;;;10.00;9.67;;;;;7.38;47.64;101757.97;5018509;28;45237;-66
2022/04/04 03:01:50;;;;;;;;;7.00;7.00;;;;;7.39;47.03;101754.38;5018594;28;45301;-67
2022/04/04 03:04:16;;;;;;;;;8.33;6.33;;;;;7.46;46.57;101770.72;5018946;28;45257;-67
2022/04/04 03:06:42;;;;;;;;;11.67;11.67;;;;;7.41;46.61;101747.22;5017125;28;48942;-66
2022/04/04 03:09:07;;;;;;;;;6.00;5.00;;;;;7.22;46.98;101718.44;5018203;28;45387;-67
2022/04/04 03:11:33;;;;;;;;;7.67;4.33;;;;;7.28;46.61;101735.72;5018391;28;45794;-66
2022/04/04 03:13:58;;;;;;;;;12.00;7.67;;;;;7.40;47.05;101755.22;5018329;28;45619;-67
2022/04/04 03:16:24;;;;;;;;;5.67;5.67;;;;;6.64;46.04;101620.88;5017823;28;45670;-66
2022/04/04 03:18:49;;;;;;;;;7.67;6.33;;;;;7.40;46.83;101750.78;5018054;28;45509;-66
2022/04/04 03:21:15;;;;;;;;;8.00;5.67;;;;;7.43;46.77;101752.41;5018590;28;45662;-65
2022/04/04 03:23:40;;;;;;;;;9.67;6.00;;;;;7.07;46.86;101685.03;5017277;28;45330;-66
2022/04/04 03:26:07;;;;;;;;;7.33;7.33;;;;;7.35;47.26;101736.16;5017554;28;45875;-66
2022/04/04 03:28:33;;;;;;;;;9.33;9.33;;;;;7.37;47.13;101740.41;5018233;28;45913;-66
2022/04/04 03:30:58;;;;;;;;;10.33;9.33;;;;;6.95;46.89;101668.16;5016775;28;45323;-66
2022/04/04 03:33:24;;;;;;;;;6.33;6.33;;;;;7.32;47.38;101729.28;5018218;28;45263;-66
2022/04/04 03:35:50;;;;;;;;;7.00;6.00;;;;;7.38;47.02;101730.66;5018023;28;45555;-65
2022/04/04 03:38:15;;;;;;;;;11.00;10.00;;;;;7.37;46.89;101735.09;5017736;28;45557;-67
2022/04/04 03:40:42;;;;;;;;;10.33;9.00;;;;;7.32;47.59;101724.84;5016519;28;45746;-67
2022/04/04 03:43:08;;;;;;;;;12.00;9.33;;;;;7.27;47.19;101715.50;5016274;28;45423;-67
2022/04/04 03:45:33;;;;;;;;;11.00;10.00;;;;;7.31;47.77;101728.41;5017015;28;47454;-67
2022/04/04 03:47:59;;;;;;;;;13.33;10.67;;;;;7.28;47.58;101717.19;5017541;28;45550;-67
2022/04/04 03:50:26;;;;;;;;;4.00;3.00;;;;;7.30;47.50;101723.22;5018094;28;45500;-66
2022/04/04 03:52:53;;;;;;;;;11.00;7.33;;;;;7.29;47.26;101716.25;5017952;28;45317;-67
2022/04/04 03:55:22;;;;;;;;;6.00;6.00;;;;;7.21;46.92;101707.97;5016810;28;46160;-67
2022/04/04 03:57:48;;;;;;;;;10.00;9.67;;;;;7.06;48.00;101667.50;5017479;28;45355;-66
2022/04/04 04:00:14;;;;;;;;;11.00;11.00;;;;;7.26;47.33;101706.72;5017444;28;45304;-67
2022/04/04 04:02:40;;;;;;;;;13.67;10.67;;;;;7.13;47.57;101689.94;5017615;28;45610;-66
2022/04/04 04:05:07;;;;;;;;;12.33;10.00;;;;;7.18;47.82;101697.56;5017230;28;45709;-67
2022/04/04 04:07:32;;;;;;;;;12.00;11.00;;;;;7.25;47.56;101709.47;5016959;28;45494;-67
2022/04/04 04:09:58;;;;;;;;;10.33;9.33;;;;;7.21;47.76;101710.63;5017465;28;45242;-67
2022/04/04 04:12:23;;;;;;;;;13.00;12.00;;;;;7.18;47.78;101703.69;5017555;28;45392;-67
2022/04/04 04:14:51;;;;;;;;;13.67;13.67;;;;;7.12;48.14;101696.16;5017102;28;45392;-67
2022/04/04 04:17:18;;;;;;;;;10.33;10.33;;;;;7.20;47.15;101712.38;5016989;28;45237;-66
2022/04/04 04:22:29;;;;;;;;;17.67;12.33;;;;;7.04;47.99;101668.53;5017003;28;45365;-66
2022/04/04 04:24:54;;;;;;;;;10.67;10.00;;;;;7.06;47.82;101677.22;5016708;28;45415;-66
2022/04/04 04:27:20;;;;;;;;;14.33;13.33;;;;;6.68;47.42;101606.50;5017219;28;45486;-66
2022/04/04 04:29:46;;;;;;;;;13.00;12.00;;;;;6.99;48.10;101688.16;5016857;28;45590;-67
2022/04/04 04:32:13;;;;;;;;;13.67;12.33;;;;;6.75;47.81;101643.94;5015707;28;45293;-66
2022/04/04 04:34:39;;;;;;;;;14.00;12.67;;;;;6.92;48.26;101692.16;5016386;28;46783;-67
2022/04/04 04:37:05;;;;;;;;;14.33;13.00;;;;;6.59;48.08;101626.41;5016313;28;45570;-66
2022/04/04 04:39:30;;;;;;;;;17.00;13.00;;;;;6.66;48.63;101640.09;5016450;28;45250;-67
2022/04/04 04:41:56;;;;;;;;;14.00;11.67;;;;;6.93;49.03;101683.28;5016863;28;45233;-65
2022/04/04 04:44:22;;;;;;;;;16.33;14.00;;;;;6.94;49.20;101676.19;5014584;28;47580;-67
2022/04/04 04:46:48;;;;;;;;;15.33;15.33;;;;;6.91;48.44;101671.09;5016520;28;45538;-64
2022/04/04 04:49:14;;;;;;;;;12.67;12.67;;;;;6.82;48.57;101661.97;5016610;28;45442;-67
2022/04/04 04:51:41;;;;;;;;;15.00;13.00;;;;;6.78;49.15;101655.16;5015576;28;45314;-67
2022/04/04 04:54:08;;;;;;;;;17.67;16.33;;;;;6.88;48.45;101677.44;5019930;28;46022;-65
2022/04/04 04:56:34;;;;;;;;;17.00;14.00;;;;;6.85;48.51;101669.72;5020068;28;45353;-67
2022/04/04 04:58:59;;;;;;;;;13.00;10.00;;;;;6.88;48.40;101680.09;5018501;28;45303;-65
2022/04/04 05:01:25;;;;;;;;;15.33;15.00;;;;;6.90;48.95;101672.91;5020042;28;45722;-65
2022/04/04 05:03:51;;;;;;;;;18.33;16.33;;;;;6.90;48.92;101672.91;5019747;28;46448;-65
2022/04/04 05:06:16;;;;;;;;;17.00;14.33;;;;;6.73;48.64;101649.34;5019147;28;45506;-67
2022/04/04 05:08:42;;;;;;;;;17.00;15.00;;;;;6.80;48.19;101655.91;5018082;28;45360;-66
2022/04/04 05:11:07;;;;;;;;;14.00;14.00;;;;;6.79;48.64;101648.94;5018790;28;45592;-66
2022/04/04 05:13:33;;;;;;;;;16.33;15.33;;;;;6.94;48.59;101666.47;5019165;28;45536;-67
2022/04/04 05:15:58;;;;;;;;;13.00;13.00;;;;;6.94;47.58;101678.84;5019850;28;45476;-67
2022/04/04 05:18:24;;;;;;;;;15.00;13.33;;;;;6.93;47.98;101675.34;5020162;28;45388;-67
2022/04/04 05:20:50;;;;;;;;;16.33;13.00;;;;;6.91;47.97;101665.81;5019666;28;45424;-66
2022/04/04 05:23:16;;;;;;;;;19.00;14.33;;;;;6.94;48.23;101671.75;5019082;28;45944;-67
2022/04/04 05:25:42;;;;;;;;;13.67;13.67;;;;;6.52;48.37;101603.13;5019325;28;45373;-67
2022/04/04 05:28:08;;;;;;;;;16.67;15.33;;;;;6.85;48.13;101659.13;5018699;28;45325;-68
2022/04/04 05:30:35;;;;;;;;;14.33;13.00;;;;;6.68;48.32;101635.56;5019339;28;45237;-67
2022/04/04 05:33:03;;;;;;;;;14.00;14.00;;;;;6.80;48.66;101650.63;5019448;28;46666;-69
2022/04/04 05:35:32;;;;;;;;;13.33;11.33;;;;;6.94;47.60;101670.91;5018359;28;45393;-67
2022/04/04 05:37:58;;;;;;;;;15.75;13.75;;;;;6.93;48.63;101669.22;5018915;28;45401;-68
2022/04/04 05:40:26;;;;;;;;;14.33;13.67;;;;;6.95;48.45;101668.16;5019046;28;45402;-67
2022/04/04 05:42:53;;;;;;;;;19.00;16.67;;;;;6.86;48.05;101655.53;5018543;28;47449;-66
2022/04/04 05:45:21;;;;;;;;;10.00;10.00;;;;;6.84;48.13;101652.16;5018745;28;45437;-67
2022/04/04 05:47:47;;;;;;;;;14.00;14.00;;;;;6.80;48.23;101649.78;5019580;28;45309;-67
2022/04/04 05:50:12;;;;;;;;;12.00;10.00;;;;;6.94;48.83;101668.25;5019341;28;45471;-67
2022/04/04 05:52:42;;;;;;;;;12.00;12.00;;;;;6.72;47.67;101623.84;5018776;28;46031;-67
2022/04/04 05:55:08;;;;;;;;;13.33;12.00;;;;;6.99;47.83;101667.00;5018658;28;45427;-66
2022/04/04 05:57:35;;;;;;;;;15.33;13.00;;;;;7.03;47.99;101666.84;5018484;28;45478;-67
2022/04/04 06:00:03;;;;;;;;;12.00;12.00;;;;;7.01;47.91;101666.94;5019072;28;45437;-67
2022/04/04 06:02:28;;;;;;;;;13.33;12.33;;;;;6.94;47.62;101640.03;5018260;28;46049;-67
2022/04/04 06:04:54;;;;;;;;;14.33;14.33;;;;;6.98;48.41;101654.75;5016623;28;45416;-68
2022/04/04 06:07:19;;;;;;;;;12.67;11.67;;;;;7.09;47.95;101661.16;5019141;28;45439;-67
2022/04/04 06:09:45;;;;;;;;;13.67;12.00;;;;;7.10;47.89;101662.84;5017893;28;45553;-68
2022/04/04 06:12:11;;;;;;;;;12.00;10.67;;;;;7.06;47.58;101661.34;5017870;28;46898;-66
2022/04/04 06:14:36;;;;;;;;;12.33;10.33;;;;;6.97;48.08;101647.75;5018975;28;45348;-67
2022/04/04 06:17:06;;;;;;;;;12.67;11.33;;;;;7.01;47.76;101656.38;5018600;28;45261;-67
2022/04/04 06:19:34;;;;;;;;;11.00;10.00;;;;;7.03;47.88;101661.56;5018358;28;45578;-68
2022/04/04 06:22:03;;;;;;;;;14.33;12.00;;;;;7.03;48.33;101638.59;5019134;28;46145;-68
2022/04/04 06:24:31;;;;;;;;;20.33;18.67;;;;;7.14;47.92;101657.25;5018055;28;45297;-67
2022/04/04 06:27:00;;;;;;;;;16.00;16.00;;;;;7.07;47.90;101636.59;5016853;28;45369;-68
2022/04/04 06:29:26;;;;;;;;;14.67;13.67;;;;;6.98;47.74;101625.66;5018196;28;45281;-67
2022/04/04 06:31:51;;;;;;;;;15.00;13.67;;;;;7.41;47.33;101649.31;5018112;28;46122;-68
2022/04/04 06:34:20;;;;;;;;;6.00;6.00;;;;;7.94;46.19;101645.69;5017606;28;45847;-67
2022/04/04 06:36:46;;;;;;;;;11.33;9.67;;;;;8.53;45.26;101639.88;5017001;28;46430;-67
2022/04/04 06:39:13;;;;;;;;;9.00;8.00;;;;;9.15;43.58;101645.09;5018682;28;45298;-68
2022/04/04 06:41:38;;;;;;;;;13.00;13.00;;;;;9.54;42.40;101595.31;5018148;28;46642;-68
2022/04/04 06:44:09;;;;;;;;;12.00;10.67;;;;;10.43;41.02;101640.63;5012851;28;46508;-68
2022/04/04 06:46:37;;;;;;;;;17.33;16.00;;;;;11.16;39.29;101645.31;5017222;28;45302;-67
2022/04/04 06:49:04;;;;;;;;;11.00;10.00;;;;;11.69;37.78;101602.75;5017422;28;45597;-68
2022/04/04 06:51:30;;;;;;;;;11.67;11.67;;;;;12.61;36.87;101624.09;5016886;28;46833;-68
2022/04/04 06:53:56;;;;;;;;;12.67;12.00;;;;;13.16;34.55;101600.47;5018380;28;45462;-67
2022/04/04 06:56:21;;;;;;;;;12.00;10.33;;;;;13.69;33.23;101580.38;5017684;28;45266;-68
2022/04/04 06:58:46;;;;;;;;;12.00;10.00;;;;;14.54;32.28;101624.03;5014718;28;45465;-68
2022/04/04 07:01:12;;;;;;;;;11.33;10.33;;;;;15.13;31.29;101633.41;5014660;28;46611;-69
2022/04/04 07:03:38;;;;;;;;;11.00;10.00;;;;;15.58;29.76;101619.06;5016545;28;45519;-66
2022/04/04 07:06:05;;;;;;;;;11.00;10.00;;;;;16.11;29.22;101617.13;5014761;28;45450;-67
2022/04/04 07:08:30;;;;;;;;;9.00;7.67;;;;;16.54;27.86;101618.00;5017746;28;45412;-69
2022/04/04 07:10:56;;;;;;;;;8.00;7.00;;;;;16.54;27.18;101599.22;5015553;28;46681;-71
2022/04/04 07:13:21;;;;;;;;;7.00;7.00;;;;;16.64;27.26;101597.25;5016487;28;45297;-66
2022/04/04 07:15:46;;;;;;;;;9.33;7.67;;;;;16.62;26.12;101614.53;5017675;28;45293;-68
2022/04/04 07:18:12;;;;;;;;;4.67;4.67;;;;;16.70;26.39;101610.06;5015794;28;45672;-67
2022/04/04 07:20:38;;;;;;;;;8.00;7.00;;;;;16.72;25.66;101610.72;5014034;28;47570;-70
2022/04/04 07:23:05;;;;;;;;;6.67;6.67;;;;;16.72;25.13;101594.63;5013916;28;45582;-70
2022/04/04 07:25:30;;;;;;;;;4.00;4.00;;;;;16.88;25.46;101606.41;5016007;28;45424;-68
2022/04/04 07:27:56;;;;;;;;;4.33;4.33;;;;;16.75;25.50;101561.22;5015027;28;45503;-68
2022/04/04 07:30:23;;;;;;;;;6.00;6.00;;;;;17.09;25.01;101590.69;5014613;28;45921;-66
2022/04/04 07:32:50;;;;;;;;;3.33;3.33;;;;;17.22;25.24;101592.84;5013585;28;45463;-68
2022/04/04 07:35:16;;;;;;;;;6.67;5.67;;;;;17.09;25.41;101598.75;5013296;28;45657;-68
2022/04/04 07:37:47;;;;;;;;;6.00;5.00;;;;;17.30;25.25;101580.28;5017794;28;45283;-68
2022/04/04 07:40:15;;;;;;;;;4.33;4.33;;;;;17.68;25.40;101590.56;5015717;28;47048;-67
2022/04/04 07:42:45;;;;;;;;;8.00;7.67;;;;;17.76;24.92;101579.78;5014057;28;45511;-68
2022/04/04 07:45:13;;;;;;;;;7.33;6.67;;;;;17.78;24.38;101583.97;5011773;28;45257;-67
2022/04/04 07:47:40;;;;;;;;;7.33;4.33;;;;;17.97;24.53;101580.06;5017321;28;45376;-66
2022/04/04 07:50:08;;;;;;;;;3.00;3.00;;;;;17.88;24.25;101575.72;5014813;28;46038;-70
2022/04/04 07:52:33;;;;;;;;;5.67;5.67;;;;;18.00;23.76;101563.56;5014526;28;45384;-66
2022/04/04 07:54:59;;;;;;;;;4.33;4.33;;;;;17.89;23.88;101556.72;5016429;28;45496;-68
2022/04/04 07:57:25;;;;;;;;;4.00;4.00;;;;;18.16;23.75;101558.16;5015829;28;45595;-70
2022/04/04 07:59:52;;;;;;;;;9.00;6.67;;;;;18.22;22.81;101537.78;5015634;28;46364;-67
2022/04/04 08:02:18;;;;;;;;;4.00;4.00;;;;;18.42;23.27;101562.41;5016663;28;45266;-67
2022/04/04 08:04:44;;;;;;;;;4.67;4.67;;;;;18.57;22.79;101560.66;5015176;28;45441;-72
2022/04/04 08:07:13;;;;;;;;;4.67;4.67;;;;;18.39;22.41;101535.84;5016947;28;45514;-70
2022/04/04 08:09:38;;;;;;;;;6.00;4.67;;;;;18.66;23.02;101551.56;5015422;28;47300;-66
2022/04/04 08:12:04;;;;;;;;;4.67;4.67;;;;;18.79;22.86;101559.03;5014421;28;45442;-66
2022/04/04 08:14:29;;;;;;;;;5.00;5.00;;;;;18.98;22.94;101563.97;5013245;28;45463;-68
2022/04/04 08:16:55;;;;;;;;;4.67;4.67;;;;;18.92;22.08;101543.16;5012826;28;45610;-67
2022/04/04 08:19:20;;;;;;;;;6.33;6.33;;;;;18.84;22.59;101557.53;5016400;28;46886;-70
2022/04/04 08:21:47;;;;;;;;;6.67;6.67;;;;;18.91;22.19;101557.63;5014083;28;45411;-67
2022/04/04 08:24:13;;;;;;;;;3.67;3.67;;;;;18.79;22.64;101545.56;5016702;28;45353;-68
2022/04/04 08:26:39;;;;;;;;;5.00;4.67;;;;;18.86;23.09;101516.94;5016009;28;45290;-68
2022/04/04 08:29:08;;;;;;;;;6.67;6.67;;;;;19.14;22.40;101528.81;5014463;28;47576;-67
2022/04/04 08:31:34;;;;;;;;;6.00;5.00;;;;;19.55;22.38;101543.84;5015312;28;45274;-66
2022/04/04 08:33:59;;;;;;;;;4.00;4.00;;;;;19.57;21.69;101531.00;5015781;28;45473;-67
2022/04/04 08:36:25;;;;;;;;;7.67;5.33;;;;;19.45;21.41;101531.44;5017266;28;45305;-67
2022/04/04 08:38:50;;;;;;;;;4.33;3.33;;;;;19.23;21.29;101512.59;5015367;28;45857;-67
2022/04/04 08:41:16;;;;;;;;;4.33;3.67;;;;;19.44;21.39;101529.75;5016015;28;45296;-67
2022/04/04 08:43:43;;;;;;;;;3.33;3.00;;;;;19.85;21.83;101506.94;5012374;28;45488;-67
2022/04/04 08:46:09;;;;;;;;;4.00;4.00;;;;;20.49;20.98;101518.81;5030526;28;45506;-69
2022/04/04 08:48:39;;;;;;;;;2.67;2.67;;;;;20.32;20.31;101499.25;5011344;28;47622;-68
2022/04/04 08:51:09;;;;;;;;;6.00;4.33;;;;;20.11;20.63;101512.69;4995349;28;45253;-66
2022/04/04 08:53:39;;;;;;;;;4.33;4.33;;;;;20.30;20.78;101522.91;5011624;28;45552;-66
2022/04/04 08:56:06;;;;;;;;;4.00;4.00;;;;;20.15;20.83;101507.75;5012614;28;45621;-67
2022/04/04 08:58:33;;;;;;;;;5.33;5.33;;;;;20.63;20.38;101490.09;5000063;28;45610;-68
2022/04/04 09:00:59;;;;;;;;;4.67;4.67;;;;;20.66;19.67;101487.00;5015977;28;45430;-67
2022/04/04 09:03:35;;;;;;;;;7.33;7.33;;;;;20.54;19.77;101472.31;5014385;28;45562;-68
2022/04/04 09:06:08;;;;;;;;;3.33;3.33;;;;;20.45;20.13;101492.38;5012045;28;45632;-70
2022/04/04 09:08:44;;;;;;;;;4.67;3.00;;;;;20.32;20.18;101493.84;4999317;28;46180;-69
2022/04/04 09:11:12;;;;;;;;;4.67;4.67;;;;;20.61;19.77;101481.31;5014843;28;45607;-69
2022/04/04 09:13:41;;;;;;;;;2.00;2.00;;;;;21.19;19.17;101482.06;5016455;28;45578;-67
2022/04/04 09:16:08;;;;;;;;;3.33;2.00;;;;;21.69;18.50;101461.22;5016637;28;45425;-70
2022/04/04 09:18:45;;;;;;;;;3.00;3.00;;;;;22.61;17.61;101472.44;5013880;28;48227;-71
2022/04/04 09:21:20;;;;;;;;;3.33;3.00;;;;;23.47;17.47;101482.53;5014493;28;45446;-67
2022/04/04 09:23:45;;;;;;;;;2.67;2.67;;;;;24.20;16.53;101483.16;5013747;28;45499;-68
2022/04/04 09:26:30;;;;;;;;;2.00;2.00;;;;;24.49;15.42;101493.50;5008133;28;45502;-68
2022/04/04 09:29:22;;;;;;;;;2.00;2.00;;;;;24.55;15.44;101472.75;5007624;28;47792;-68
2022/04/04 09:31:58;;;;;;;;;3.33;3.33;;;;;25.42;15.09;101452.81;5013247;28;45608;-69
2022/04/04 09:34:23;;;;;;;;;3.00;2.67;;;;;26.14;14.31;101455.81;5014158;28;45623;-67
2022/04/04 09:37:01;;;;;;;;;2.67;2.67;;;;;25.93;14.18;101408.09;5014600;28;45569;-68
2022/04/04 09:39:33;;;;;;;;;29.00;28.33;;;;;26.65;14.17;101457.22;5017216;28;46069;-70
2022/04/04 09:42:00;;;;;;;;;23.00;23.00;;;;;26.76;14.04;101410.03;5014556;28;45520;-69
2022/04/04 09:44:25;;;;;;;;;3.00;3.00;;;;;27.88;13.99;101429.03;5004736;28;45589;-72
2022/04/04 09:46:53;;;;;;;;;2.00;2.00;;;;;28.30;12.44;101395.97;5003875;28;45556;-69
2022/04/04 09:49:22;;;;;;;;;2.33;2.33;;;;;28.90;11.74;101425.47;5018853;28;45463;-68
2022/04/04 09:51:53;;;;;;;;;2.00;2.00;;;;;28.86;11.61;101441.56;5017134;28;45546;-69
2022/04/04 09:54:27;;;;;;;;;3.00;1.00;;;;;27.99;12.07;101413.66;5018477;28;45439;-68
2022/04/04 09:57:10;;;;;;;;;4.00;2.00;;;;;27.47;11.64;101422.66;5018816;28;45559;-67
2022/04/04 09:59:37;;;;;;;;;2.00;2.00;;;;;26.47;12.67;101402.75;5017641;28;47817;-68
2022/04/04 10:02:04;;;;;;;;;3.00;1.00;;;;;26.06;12.99;101437.91;5018840;28;45368;-69
2022/04/04 10:04:31;;;;;;;;;4.00;3.00;;;;;25.40;14.04;101437.78;5017022;28;45622;-66
2022/04/04 10:07:08;;;;;;;;;5.33;5.33;;;;;25.14;14.86;101420.66;5014187;28;45223;-71
2022/04/04 10:09:35;;;;;;;;;2.67;2.67;;;;;24.89;14.13;101436.13;5007695;28;45621;-67
2022/04/04 10:12:01;;;;;;;;;2.00;2.00;;;;;24.49;14.05;101427.44;5017520;28;45442;-69
2022/04/04 10:14:30;;;;;;;;;3.33;3.33;;;;;23.81;14.65;101406.22;5016593;28;46126;-68
2022/04/04 10:16:57;;;;;;;;;2.00;2.00;;;;;23.05;15.91;101419.53;5019102;28;45483;-66
2022/04/04 10:19:25;;;;;;;;;10.00;10.00;;;;;22.30;16.54;101407.13;5017915;28;46949;-69
2022/04/04 10:21:50;;;;;;;;;2.00;2.00;;;;;21.56;17.04;101429.50;5016069;28;45354;-67
2022/04/04 10:24:17;;;;;;;;;5.00;3.33;;;;;21.17;17.60;101421.94;5018264;28;45341;-68
2022/04/04 10:26:47;;;;;;;;;1.00;1.00;;;;;20.87;17.21;101413.19;5019159;28;45428;-67
2022/04/04 10:29:14;;;;;;;;;2.00;2.00;;;;;20.35;17.92;101417.00;5013695;28;47147;-72
2022/04/04 10:31:47;;;;;;;;;2.00;2.00;;;;;19.82;18.55;101415.53;5013645;28;45510;-67
2022/04/04 10:34:24;;;;;;;;;2.33;2.33;;;;;19.37;18.45;101402.06;5016267;28;45534;-68
2022/04/04 10:36:58;;;;;;;;;2.00;2.00;;;;;18.88;19.20;101377.47;5018949;28;45549;-68
2022/04/04 10:39:47;;;;;;;;;0.67;0.67;;;;;18.10;19.63;101375.03;5016395;28;45698;-69
2022/04/04 10:42:32;;;;;;;;;1.67;1.67;;;;;18.08;19.62;101395.91;5000556;28;45329;-67
2022/04/04 10:45:12;;;;;;;;;3.00;2.00;;;;;17.72;19.48;101366.81;5017005;28;45658;-68
2022/04/04 10:47:43;;;;;;;;;2.00;2.00;;;;;17.44;19.90;101379.00;5018534;28;45502;-67
2022/04/04 10:50:33;;;;;;;;;1.00;1.00;;;;;17.23;20.39;101372.34;5017449;28;47499;-66
2022/04/04 10:53:03;;;;;;;;;3.33;3.33;;;;;17.21;20.49;101382.41;5017282;28;45423;-68
2022/04/04 10:55:38;;;;;;;;;3.67;3.67;;;;;17.06;20.63;101370.72;5016250;28;45274;-67
2022/04/04 10:58:07;;;;;;;;;3.00;2.00;;;;;16.83;20.90;101359.84;5017951;28;45559;-68
2022/04/04 11:00:34;;;;;;;;;4.00;2.67;;;;;16.98;20.82;101362.66;5017638;28;45508;-66
2022/04/04 11:03:05;;;;;;;;;4.00;3.00;;;;;17.03;20.62;101363.00;5015764;28;45531;-67
2022/04/04 11:08:44;;;;;;;;;3.33;2.33;;;;;16.63;20.95;101339.69;5014534;28;45475;-69
2022/04/04 11:11:49;;;;;;;;;3.00;3.00;;;;;16.15;21.74;101360.13;5012484;28;46267;-72
2022/04/04 11:14:42;;;;;;;;;3.00;3.00;;;;;16.00;22.07;101354.53;4992975;28;45614;-72
2022/04/04 11:17:17;;;;;;;;;3.00;3.00;;;;;15.91;22.22;101352.88;5023298;28;45509;-69
2022/04/04 11:20:02;;;;;;;;;3.00;3.00;;;;;16.07;22.21;101336.81;5015639;28;45525;-71
2022/04/04 11:22:29;;;;;;;;;4.00;4.00;;;;;16.17;22.35;101349.22;5016189;28;48369;-68
2022/04/04 11:25:03;;;;;;;;;6.00;1.33;;;;;16.15;22.68;101333.28;5017317;28;45431;-69
2022/04/04 11:27:34;;;;;;;;;4.00;4.00;;;;;16.05;22.56;101320.03;5015626;28;45393;-70
2022/04/04 11:30:15;;;;;;;;;3.00;3.00;;;;;16.20;22.52;101308.63;5016868;28;45436;-69
2022/04/04 11:32:42;;;;;;;;;2.33;2.33;;;;;16.29;22.03;101311.19;5016737;28;45755;-68